Date,TemperatureHighF,TemperatureAvgF,TemperatureLowF,DewpointHighF,DewpointAvgF,DewpointLowF,HumidityHigh,HumidityAvg,HumidityLow,PressureMaxIn,PressureMinIn,WindSpeedMaxMPH,WindSpeedAvgMPH,GustSpeedMaxMPH,PrecipitationSumIn
2013-9-1,100.4,85.6,69.2,67.8,63.9,57.3,87,52,30,29.80,29.64,18,2,18,0.00
2013-9-2,97.8,84.1,74.1,67.4,62.9,55.7,71,51,27,29.84,29.65,15,2,15,0.00
2013-9-3,101.9,82.1,71.6,68.0,63.2,57.2,74,55,27,29.83,29.70,18,2,25,0.00
2013-9-4,102.2,85.7,68.1,65.2,56.7,49.4,81,43,19,29.84,29.71,19,3,19,0.00
2013-9-5,102.8,90.2,71.5,58.4,52.2,48.1,53,29,18,29.80,29.69,19,3,19,0.00
2013-9-6,103.0,85.0,70.6,67.0,58.7,53.1,83,43,21,29.84,29.66,22,2,27,0.01
2013-9-7,87.0,78.2,71.5,69.2,64.9,59.7,87,65,43,29.85,29.74,14,2,14,0.00
2013-9-8,85.8,76.3,70.9,70.6,66.6,60.7,91,73,49,29.79,29.67,13,2,13,0.00
2013-9-9,84.2,74.6,69.4,71.7,67.7,64.4,95,80,55,29.75,29.64,22,1,22,0.00
2013-9-10,86.8,74.3,63.9,68.2,63.3,57.9,96,72,42,29.84,29.72,17,2,22,0.00
2013-9-11,91.5,77.1,63.7,65.2,60.2,54.0,94,61,30,29.89,29.76,12,1,12,0.00
2013-9-12,96.3,80.6,64.2,63.4,59.7,53.6,87,53,29,29.80,29.62,23,3,23,0.00
2013-9-13,97.7,84.9,70.2,66.4,60.9,49.9,78,47,22,29.69,29.50,16,3,16,0.00
2013-9-14,99.1,85.2,70.6,65.4,59.3,50.9,76,45,21,29.61,29.50,16,2,16,0.00
2013-9-15,99.8,87.8,73.4,60.5,57.7,51.8,62,38,21,29.66,29.57,18,4,23,0.00
2013-9-16,100.2,89.8,82.8,63.0,59.5,56.0,45,37,24,29.70,29.57,25,6,25,0.00
2013-9-17,101.1,90.3,81.7,61.9,58.9,52.7,48,36,23,29.67,29.51,20,4,20,0.00
2013-9-18,100.1,85.6,70.3,60.8,50.7,42.0,61,33,15,29.65,29.51,9,2,12,0.00
2013-9-19,99.5,84.1,65.2,56.1,49.5,44.3,60,33,18,29.67,29.54,12,2,12,0.00
2013-9-20,100.0,83.2,65.8,58.5,51.7,42.9,59,35,21,29.73,29.60,17,2,17,0.00
2013-9-21,99.5,84.0,69.1,61.3,56.4,50.8,64,41,21,29.74,29.55,19,2,19,0.00
2013-9-22,94.8,81.8,70.3,66.0,55.3,41.4,65,42,24,29.64,29.49,28,5,28,0.00
2013-9-23,90.8,74.1,55.7,46.4,42.1,38.7,60,34,18,29.83,29.64,11,2,11,0.00
2013-9-24,65.3,65.1,64.9,40.3,39.8,39.3,40,40,39,29.83,29.83,3,2,3,0.00